Melville, NY (11747)

8:16 PM EDT on June 03, 2015 (GMT -0400)
The Woods | | Change Station
CLOSE
Current Station
Personal Weather Station
Location: Melville, NY
Elevation: 151 ft
Nearby Weather Stations

Elev 151 ft 40.80 °N, 73.41 °W | Updated 1 minute ago

Mostly Cloudy
Mostly Cloudy
55.4 °F
Feels Like 55.4 °F
N
2.7
Wind Variable Wind from South

Today
High -- | Low -- °F
--% Chance of Precip.
Yesterday
High -- | Low -- °F
Precip. -- in
5:23 AM 8:20 PM
Full, 98% visible
Pressure 30.22 in
Visibility 10.0 miles
Clouds Overcast 1500 ft
Dew Point 51 °F
Humidity 85%
Rainfall 0.00 in
Snow Depth Not available.
UV 0 out of 12
Pollen 6.40 out of 12
Air Quality Not available.
Flu Activity Sporadic
METAR KFRG 032353Z 14010KT 10SM OVC015 13/10 A3022 RMK AO2 SLP234 T01330100 10183 20133 53008

More Conditions Fewer Conditions

Pressure 30.22 in
Visibility 10.0 miles
Clouds Overcast 1500 ft
Dew Point 51 °F
Humidity 85%
Rainfall 0.00 in
Snow Depth Not available.
UV 0 out of 12
Pollen 6.40 out of 12
Air Quality Not available.
Flu Activity Sporadic
METAR KFRG 032353Z 14010KT 10SM OVC015 13/10 A3022 RMK AO2 SLP234 T01330100 10183 20133 53008

More Conditions Fewer Conditions

10-Day Weather Forecast

×

Almanac

Astronomy

Jun. 03, 2015 Rise Set
Actual Time
Civil Twilight
Nautical Twilight
Astronomical Twilight
Moon
Length of Visible Light
Length of Day
Tomorrow will be .
, % of the Moon is Illuminated

Today's Extremes

State Highs State Lows

Community

WunderPhotos

Upload Photos

1,826,310 photos uploaded!

WunderBlogs® & News

Nearby

Air Quality

  Air Quality AQ Index Pollutant
Not available.

Snow Depth

Station Depth Elevation

Earthquake Activity

City Distance Mag. Time & Date
Minimum magnitude displayed is 2.5.

Coastal Water Temperatures

Place Temperature

Stations

Nearby Weather Stations

Station Location Temp. Windchill Dew Point Humidity Wind Precip. Elev Updated Type